sensor_id;sensor_type;location;lat;lon;timestamp;temperature;humidity
36710;DHT22;22694;51.040;3.684;2023-01-16T00:00:48;14.30;85.50
36710;DHT22;22694;51.040;3.684;2023-01-16T00:03:14;14.20;85.70
36710;DHT22;22694;51.040;3.684;2023-01-16T00:05:40;14.20;85.70
36710;DHT22;22694;51.040;3.684;2023-01-16T00:08:06;14.10;85.90
36710;DHT22;22694;51.040;3.684;2023-01-16T00:10:31;14.10;86.10
36710;DHT22;22694;51.040;3.684;2023-01-16T00:12:57;14.00;86.20
36710;DHT22;22694;51.040;3.684;2023-01-16T00:15:23;14.00;86.40
36710;DHT22;22694;51.040;3.684;2023-01-16T00:17:48;13.90;86.80
36710;DHT22;22694;51.040;3.684;2023-01-16T00:20:15;13.90;86.20
36710;DHT22;22694;51.040;3.684;2023-01-16T00:22:41;13.80;86.20
36710;DHT22;22694;51.040;3.684;2023-01-16T00:25:07;13.80;86.40
36710;DHT22;22694;51.040;3.684;2023-01-16T00:27:33;13.70;86.60
36710;DHT22;22694;51.040;3.684;2023-01-16T00:29:59;13.70;86.70
36710;DHT22;22694;51.040;3.684;2023-01-16T00:32:24;13.70;86.80
36710;DHT22;22694;51.040;3.684;2023-01-16T00:34:50;13.70;86.90
36710;DHT22;22694;51.040;3.684;2023-01-16T00:37:15;13.60;87.10
36710;DHT22;22694;51.040;3.684;2023-01-16T00:39:41;13.60;87.10
36710;DHT22;22694;51.040;3.684;2023-01-16T00:42:07;13.50;87.20
36710;DHT22;22694;51.040;3.684;2023-01-16T00:44:33;13.50;87.30
36710;DHT22;22694;51.040;3.684;2023-01-16T00:46:58;13.40;87.40
36710;DHT22;22694;51.040;3.684;2023-01-16T00:49:24;13.40;87.40
36710;DHT22;22694;51.040;3.684;2023-01-16T00:51:50;13.40;87.60
36710;DHT22;22694;51.040;3.684;2023-01-16T00:54:15;13.40;87.60
36710;DHT22;22694;51.040;3.684;2023-01-16T00:56:41;13.30;87.50
36710;DHT22;22694;51.040;3.684;2023-01-16T00:59:06;13.30;87.80
36710;DHT22;22694;51.040;3.684;2023-01-16T01:01:32;13.30;88.00
36710;DHT22;22694;51.040;3.684;2023-01-16T01:03:59;13.20;87.80
36710;DHT22;22694;51.040;3.684;2023-01-16T01:06:25;13.10;87.80
36710;DHT22;22694;51.040;3.684;2023-01-16T01:08:51;13.10;87.80
36710;DHT22;22694;51.040;3.684;2023-01-16T01:11:16;13.10;87.80
36710;DHT22;22694;51.040;3.684;2023-01-16T01:13:42;13.10;87.90
36710;DHT22;22694;51.040;3.684;2023-01-16T01:16:09;13.10;88.00
36710;DHT22;22694;51.040;3.684;2023-01-16T01:18:35;13.00;88.10
36710;DHT22;22694;51.040;3.684;2023-01-16T01:21:01;13.00;88.20
36710;DHT22;22694;51.040;3.684;2023-01-16T01:23:27;13.00;88.30
36710;DHT22;22694;51.040;3.684;2023-01-16T01:25:52;12.90;88.30
36710;DHT22;22694;51.040;3.684;2023-01-16T01:28:18;12.90;88.40
36710;DHT22;22694;51.040;3.684;2023-01-16T01:30:44;12.90;88.30
36710;DHT22;22694;51.040;3.684;2023-01-16T01:33:10;12.90;88.40
36710;DHT22;22694;51.040;3.684;2023-01-16T01:35:37;12.90;88.30
36710;DHT22;22694;51.040;3.684;2023-01-16T01:38:03;12.80;88.40
36710;DHT22;22694;51.040;3.684;2023-01-16T01:40:31;12.80;88.60
36710;DHT22;22694;51.040;3.684;2023-01-16T01:42:57;12.80;88.80
36710;DHT22;22694;51.040;3.684;2023-01-16T01:45:30;12.80;88.90
36710;DHT22;22694;51.040;3.684;2023-01-16T01:48:12;12.70;88.70
36710;DHT22;22694;51.040;3.684;2023-01-16T01:51:01;12.70;89.10
36710;DHT22;22694;51.040;3.684;2023-01-16T01:53:29;12.70;89.00
36710;DHT22;22694;51.040;3.684;2023-01-16T01:55:59;12.60;89.00
36710;DHT22;22694;51.040;3.684;2023-01-16T01:58:27;12.60;89.10
36710;DHT22;22694;51.040;3.684;2023-01-16T02:00:56;12.60;89.20
36710;DHT22;22694;51.040;3.684;2023-01-16T02:03:39;12.60;89.20
36710;DHT22;22694;51.040;3.684;2023-01-16T02:06:09;12.50;89.20
36710;DHT22;22694;51.040;3.684;2023-01-16T02:08:39;12.50;89.30
36710;DHT22;22694;51.040;3.684;2023-01-16T02:11:16;12.50;89.30
36710;DHT22;22694;51.040;3.684;2023-01-16T02:13:57;12.40;89.30
36710;DHT22;22694;51.040;3.684;2023-01-16T02:16:24;12.50;89.50
36710;DHT22;22694;51.040;3.684;2023-01-16T02:19:23;12.40;89.40
36710;DHT22;22694;51.040;3.684;2023-01-16T02:22:29;12.40;89.60
36710;DHT22;22694;51.040;3.684;2023-01-16T02:48:16;12.20;90.00
36710;DHT22;22694;51.040;3.684;2023-01-16T02:54:30;12.20;90.00
36710;DHT22;22694;51.040;3.684;2023-01-16T02:57:08;12.20;90.00
36710;DHT22;22694;51.040;3.684;2023-01-16T02:59:34;12.10;90.00
36710;DHT22;22694;51.040;3.684;2023-01-16T03:02:01;12.10;90.00
36710;DHT22;22694;51.040;3.684;2023-01-16T03:15:27;12.10;90.00
36710;DHT22;22694;51.040;3.684;2023-01-16T03:18:50;12.10;90.10
36710;DHT22;22694;51.040;3.684;2023-01-16T03:24:06;12.00;90.00
36710;DHT22;22694;51.040;3.684;2023-01-16T03:26:45;12.00;90.00
36710;DHT22;22694;51.040;3.684;2023-01-16T03:29:26;12.00;90.10
36710;DHT22;22694;51.040;3.684;2023-01-16T03:32:05;12.00;90.10
36710;DHT22;22694;51.040;3.684;2023-01-16T03:34:58;12.00;90.10
36710;DHT22;22694;51.040;3.684;2023-01-16T03:37:33;12.00;90.10
36710;DHT22;22694;51.040;3.684;2023-01-16T03:40:08;12.00;90.10
36710;DHT22;22694;51.040;3.684;2023-01-16T03:42:36;12.00;90.10
36710;DHT22;22694;51.040;3.684;2023-01-16T03:45:18;11.90;90.10
36710;DHT22;22694;51.040;3.684;2023-01-16T03:47:49;12.00;90.10
36710;DHT22;22694;51.040;3.684;2023-01-16T03:50:21;12.00;90.10
36710;DHT22;22694;51.040;3.684;2023-01-16T03:52:51;12.00;90.20
36710;DHT22;22694;51.040;3.684;2023-01-16T03:55:30;12.00;90.20
36710;DHT22;22694;51.040;3.684;2023-01-16T03:58:07;11.90;90.10
36710;DHT22;22694;51.040;3.684;2023-01-16T04:00:51;12.00;90.40
36710;DHT22;22694;51.040;3.684;2023-01-16T04:06:48;12.00;90.10
36710;DHT22;22694;51.040;3.684;2023-01-16T04:09:21;12.00;90.10
36710;DHT22;22694;51.040;3.684;2023-01-16T04:11:49;12.00;90.10
36710;DHT22;22694;51.040;3.684;2023-01-16T04:14:17;11.90;90.00
36710;DHT22;22694;51.040;3.684;2023-01-16T04:16:43;11.90;90.10
36710;DHT22;22694;51.040;3.684;2023-01-16T04:19:12;11.90;90.10
36710;DHT22;22694;51.040;3.684;2023-01-16T04:21:43;11.90;90.10
36710;DHT22;22694;51.040;3.684;2023-01-16T04:24:08;11.90;90.20
36710;DHT22;22694;51.040;3.684;2023-01-16T04:26:34;11.90;90.20
36710;DHT22;22694;51.040;3.684;2023-01-16T04:28:59;11.90;90.20
36710;DHT22;22694;51.040;3.684;2023-01-16T04:31:25;11.90;90.10
36710;DHT22;22694;51.040;3.684;2023-01-16T04:33:52;11.90;90.10
36710;DHT22;22694;51.040;3.684;2023-01-16T04:36:18;11.90;90.10
36710;DHT22;22694;51.040;3.684;2023-01-16T04:38:44;11.90;90.10
36710;DHT22;22694;51.040;3.684;2023-01-16T04:41:09;11.90;90.10
36710;DHT22;22694;51.040;3.684;2023-01-16T04:43:35;11.90;90.10
36710;DHT22;22694;51.040;3.684;2023-01-16T04:46:01;11.90;90.20
36710;DHT22;22694;51.040;3.684;2023-01-16T04:48:26;11.90;90.60
36710;DHT22;22694;51.040;3.684;2023-01-16T04:50:52;12.00;90.50
36710;DHT22;22694;51.040;3.684;2023-01-16T04:53:17;12.00;90.40
36710;DHT22;22694;51.040;3.684;2023-01-16T04:55:43;12.00;90.30
36710;DHT22;22694;51.040;3.684;2023-01-16T04:58:09;12.00;90.10
36710;DHT22;22694;51.040;3.684;2023-01-16T05:00:34;12.00;90.10
36710;DHT22;22694;51.040;3.684;2023-01-16T05:03:00;11.90;90.10
36710;DHT22;22694;51.040;3.684;2023-01-16T05:05:25;11.90;90.10
36710;DHT22;22694;51.040;3.684;2023-01-16T05:07:51;12.00;90.10
36710;DHT22;22694;51.040;3.684;2023-01-16T05:10:37;11.90;90.10
36710;DHT22;22694;51.040;3.684;2023-01-16T05:13:03;11.90;90.10
36710;DHT22;22694;51.040;3.684;2023-01-16T05:15:29;11.90;90.10
36710;DHT22;22694;51.040;3.684;2023-01-16T05:17:54;11.90;90.10
36710;DHT22;22694;51.040;3.684;2023-01-16T05:20:21;11.90;90.20
36710;DHT22;22694;51.040;3.684;2023-01-16T05:22:47;11.90;90.20
36710;DHT22;22694;51.040;3.684;2023-01-16T05:25:13;11.90;91.20
36710;DHT22;22694;51.040;3.684;2023-01-16T05:27:39;12.10;93.50
36710;DHT22;22694;51.040;3.684;2023-01-16T05:30:06;12.40;95.50
36710;DHT22;22694;51.040;3.684;2023-01-16T05:32:31;12.80;95.40
36710;DHT22;22694;51.040;3.684;2023-01-16T05:34:57;13.10;94.40
36710;DHT22;22694;51.040;3.684;2023-01-16T05:37:26;13.40;94.60
36710;DHT22;22694;51.040;3.684;2023-01-16T05:39:51;13.80;93.80
36710;DHT22;22694;51.040;3.684;2023-01-16T05:42:17;14.10;92.90
36710;DHT22;22694;51.040;3.684;2023-01-16T05:44:51;14.40;92.10
36710;DHT22;22694;51.040;3.684;2023-01-16T05:47:20;14.30;91.20
36710;DHT22;22694;51.040;3.684;2023-01-16T05:49:46;14.10;90.80
36710;DHT22;22694;51.040;3.684;2023-01-16T05:52:12;13.80;88.90
36710;DHT22;22694;51.040;3.684;2023-01-16T05:54:38;13.50;87.50
36710;DHT22;22694;51.040;3.684;2023-01-16T05:57:03;13.30;87.50
36710;DHT22;22694;51.040;3.684;2023-01-16T05:59:29;13.20;87.90
36710;DHT22;22694;51.040;3.684;2023-01-16T06:01:55;13.10;88.10
36710;DHT22;22694;51.040;3.684;2023-01-16T06:04:22;12.90;88.40
36710;DHT22;22694;51.040;3.684;2023-01-16T06:06:48;12.80;88.60
36710;DHT22;22694;51.040;3.684;2023-01-16T06:09:13;12.70;89.50
36710;DHT22;22694;51.040;3.684;2023-01-16T06:11:39;12.70;89.10
36710;DHT22;22694;51.040;3.684;2023-01-16T06:14:05;12.60;89.20
36710;DHT22;22694;51.040;3.684;2023-01-16T06:16:31;12.50;89.40
36710;DHT22;22694;51.040;3.684;2023-01-16T06:18:57;12.60;91.10
36710;DHT22;22694;51.040;3.684;2023-01-16T06:21:23;12.70;90.80
36710;DHT22;22694;51.040;3.684;2023-01-16T06:23:48;12.70;90.70
36710;DHT22;22694;51.040;3.684;2023-01-16T06:26:14;12.70;89.70
36710;DHT22;22694;51.040;3.684;2023-01-16T06:28:40;12.60;89.40
36710;DHT22;22694;51.040;3.684;2023-01-16T06:31:06;12.70;90.10
36710;DHT22;22694;51.040;3.684;2023-01-16T06:33:32;12.80;90.40
36710;DHT22;22694;51.040;3.684;2023-01-16T06:35:57;12.90;90.60
36710;DHT22;22694;51.040;3.684;2023-01-16T06:38:23;12.90;90.70
36710;DHT22;22694;51.040;3.684;2023-01-16T06:40:49;12.90;90.70
36710;DHT22;22694;51.040;3.684;2023-01-16T06:43:15;12.90;90.80
36710;DHT22;22694;51.040;3.684;2023-01-16T06:45:42;12.90;90.90
36710;DHT22;22694;51.040;3.684;2023-01-16T06:48:10;12.90;90.80
36710;DHT22;22694;51.040;3.684;2023-01-16T06:50:36;12.90;90.80
36710;DHT22;22694;51.040;3.684;2023-01-16T06:53:01;13.00;90.90
36710;DHT22;22694;51.040;3.684;2023-01-16T06:55:27;12.90;91.00
36710;DHT22;22694;51.040;3.684;2023-01-16T06:57:52;13.00;91.00
36710;DHT22;22694;51.040;3.684;2023-01-16T07:00:18;13.00;91.00
36710;DHT22;22694;51.040;3.684;2023-01-16T07:02:50;13.00;91.00
36710;DHT22;22694;51.040;3.684;2023-01-16T07:05:16;13.00;91.00
36710;DHT22;22694;51.040;3.684;2023-01-16T07:07:42;12.90;90.90
36710;DHT22;22694;51.040;3.684;2023-01-16T07:10:08;13.00;91.00
36710;DHT22;22694;51.040;3.684;2023-01-16T07:12:34;12.90;91.00
36710;DHT22;22694;51.040;3.684;2023-01-16T07:14:59;12.90;91.00
36710;DHT22;22694;51.040;3.684;2023-01-16T07:17:44;12.90;91.00
36710;DHT22;22694;51.040;3.684;2023-01-16T07:20:28;12.90;91.00
36710;DHT22;22694;51.040;3.684;2023-01-16T07:23:32;12.90;91.00
36710;DHT22;22694;51.040;3.684;2023-01-16T07:26:02;12.90;91.00
36710;DHT22;22694;51.040;3.684;2023-01-16T07:28:28;12.90;91.00
36710;DHT22;22694;51.040;3.684;2023-01-16T07:30:55;12.90;91.00
36710;DHT22;22694;51.040;3.684;2023-01-16T07:33:22;12.90;91.10
36710;DHT22;22694;51.040;3.684;2023-01-16T07:35:48;12.90;91.00
36710;DHT22;22694;51.040;3.684;2023-01-16T07:38:14;12.90;91.10
36710;DHT22;22694;51.040;3.684;2023-01-16T07:40:40;12.90;91.10
36710;DHT22;22694;51.040;3.684;2023-01-16T07:43:05;12.90;91.10
36710;DHT22;22694;51.040;3.684;2023-01-16T07:45:31;12.90;91.10
36710;DHT22;22694;51.040;3.684;2023-01-16T07:47:57;12.90;91.10
36710;DHT22;22694;51.040;3.684;2023-01-16T07:50:22;12.90;91.10
36710;DHT22;22694;51.040;3.684;2023-01-16T07:52:48;12.90;91.10
36710;DHT22;22694;51.040;3.684;2023-01-16T07:55:14;12.90;91.10
36710;DHT22;22694;51.040;3.684;2023-01-16T07:57:42;12.90;91.10
36710;DHT22;22694;51.040;3.684;2023-01-16T08:00:09;12.90;91.10
36710;DHT22;22694;51.040;3.684;2023-01-16T08:02:36;12.90;91.10
36710;DHT22;22694;51.040;3.684;2023-01-16T08:05:02;12.90;91.00
36710;DHT22;22694;51.040;3.684;2023-01-16T08:07:28;12.90;91.00
36710;DHT22;22694;51.040;3.684;2023-01-16T08:09:53;12.90;91.00
36710;DHT22;22694;51.040;3.684;2023-01-16T08:12:19;12.90;91.10
36710;DHT22;22694;51.040;3.684;2023-01-16T08:14:45;12.90;91.00
36710;DHT22;22694;51.040;3.684;2023-01-16T08:17:10;13.00;91.10
36710;DHT22;22694;51.040;3.684;2023-01-16T08:19:36;13.10;91.10
36710;DHT22;22694;51.040;3.684;2023-01-16T08:22:02;13.00;91.10
36710;DHT22;22694;51.040;3.684;2023-01-16T08:24:28;13.10;91.20
36710;DHT22;22694;51.040;3.684;2023-01-16T08:26:54;13.10;91.20
36710;DHT22;22694;51.040;3.684;2023-01-16T08:29:20;13.20;91.30
36710;DHT22;22694;51.040;3.684;2023-01-16T08:31:45;13.20;91.40
36710;DHT22;22694;51.040;3.684;2023-01-16T08:34:11;13.20;91.30
36710;DHT22;22694;51.040;3.684;2023-01-16T08:36:37;13.20;91.30
36710;DHT22;22694;51.040;3.684;2023-01-16T08:39:02;13.20;91.30
36710;DHT22;22694;51.040;3.684;2023-01-16T08:41:28;13.30;91.30
36710;DHT22;22694;51.040;3.684;2023-01-16T08:44:12;13.30;91.40
36710;DHT22;22694;51.040;3.684;2023-01-16T08:47:02;13.30;91.40
36710;DHT22;22694;51.040;3.684;2023-01-16T08:49:47;13.30;91.30
36710;DHT22;22694;51.040;3.684;2023-01-16T08:52:32;13.40;91.30
36710;DHT22;22694;51.040;3.684;2023-01-16T08:54:59;13.30;91.30
36710;DHT22;22694;51.040;3.684;2023-01-16T08:57:26;13.30;91.30
36710;DHT22;22694;51.040;3.684;2023-01-16T08:59:53;13.30;91.40
36710;DHT22;22694;51.040;3.684;2023-01-16T09:02:19;13.30;91.40
36710;DHT22;22694;51.040;3.684;2023-01-16T09:04:45;13.40;91.40
36710;DHT22;22694;51.040;3.684;2023-01-16T09:07:11;13.40;91.30
36710;DHT22;22694;51.040;3.684;2023-01-16T09:09:37;13.40;91.30
36710;DHT22;22694;51.040;3.684;2023-01-16T09:12:03;13.40;91.20
36710;DHT22;22694;51.040;3.684;2023-01-16T09:14:47;13.40;91.20
36710;DHT22;22694;51.040;3.684;2023-01-16T09:17:12;13.40;91.20
36710;DHT22;22694;51.040;3.684;2023-01-16T09:19:38;13.50;91.50
36710;DHT22;22694;51.040;3.684;2023-01-16T09:22:04;13.50;91.80
36710;DHT22;22694;51.040;3.684;2023-01-16T09:24:34;13.60;91.70
36710;DHT22;22694;51.040;3.684;2023-01-16T09:27:01;13.60;91.50
36710;DHT22;22694;51.040;3.684;2023-01-16T09:29:27;13.60;91.40
36710;DHT22;22694;51.040;3.684;2023-01-16T09:31:53;13.60;91.30
36710;DHT22;22694;51.040;3.684;2023-01-16T09:34:19;13.60;91.20
36710;DHT22;22694;51.040;3.684;2023-01-16T09:36:44;13.60;91.20
36710;DHT22;22694;51.040;3.684;2023-01-16T09:39:10;13.60;91.10
36710;DHT22;22694;51.040;3.684;2023-01-16T09:44:33;13.60;91.10
36710;DHT22;22694;51.040;3.684;2023-01-16T09:47:00;13.60;91.00
36710;DHT22;22694;51.040;3.684;2023-01-16T09:49:30;13.60;91.00
36710;DHT22;22694;51.040;3.684;2023-01-16T09:52:06;13.60;91.00
36710;DHT22;22694;51.040;3.684;2023-01-16T09:54:56;13.50;91.00
36710;DHT22;22694;51.040;3.684;2023-01-16T09:57:43;13.50;91.00
36710;DHT22;22694;51.040;3.684;2023-01-16T10:00:30;13.50;91.00
36710;DHT22;22694;51.040;3.684;2023-01-16T10:02:56;13.50;91.10
36710;DHT22;22694;51.040;3.684;2023-01-16T10:05:26;13.60;91.10
36710;DHT22;22694;51.040;3.684;2023-01-16T10:08:04;13.60;91.20
36710;DHT22;22694;51.040;3.684;2023-01-16T10:16:31;13.60;91.30
36710;DHT22;22694;51.040;3.684;2023-01-16T10:24:44;13.80;92.50
36710;DHT22;22694;51.040;3.684;2023-01-16T10:27:35;13.70;90.10
36710;DHT22;22694;51.040;3.684;2023-01-16T10:32:36;13.10;86.50
36710;DHT22;22694;51.040;3.684;2023-01-16T10:37:44;12.90;87.70
36710;DHT22;22694;51.040;3.684;2023-01-16T10:40:19;12.70;88.00
36710;DHT22;22694;51.040;3.684;2023-01-16T10:42:54;12.60;88.40
36710;DHT22;22694;51.040;3.684;2023-01-16T10:45:40;12.50;88.70
36710;DHT22;22694;51.040;3.684;2023-01-16T10:48:26;12.50;89.00
36710;DHT22;22694;51.040;3.684;2023-01-16T10:51:12;12.40;89.40
36710;DHT22;22694;51.040;3.684;2023-01-16T10:53:37;12.30;89.60
36710;DHT22;22694;51.040;3.684;2023-01-16T10:56:04;12.30;89.90
36710;DHT22;22694;51.040;3.684;2023-01-16T10:58:34;12.30;90.00
36710;DHT22;22694;51.040;3.684;2023-01-16T11:01:11;12.30;90.10
36710;DHT22;22694;51.040;3.684;2023-01-16T11:03:50;12.20;90.10
36710;DHT22;22694;51.040;3.684;2023-01-16T11:08:54;12.20;90.30
36710;DHT22;22694;51.040;3.684;2023-01-16T11:11:21;12.20;90.40
36710;DHT22;22694;51.040;3.684;2023-01-16T11:17:32;12.20;90.50
36710;DHT22;22694;51.040;3.684;2023-01-16T11:20:25;12.10;90.50
36710;DHT22;22694;51.040;3.684;2023-01-16T11:22:57;12.40;95.50
36710;DHT22;22694;51.040;3.684;2023-01-16T11:25:24;12.80;94.90
36710;DHT22;22694;51.040;3.684;2023-01-16T11:27:51;13.30;95.10
36710;DHT22;22694;51.040;3.684;2023-01-16T11:30:28;13.60;94.00
36710;DHT22;22694;51.040;3.684;2023-01-16T11:32:55;13.90;93.00
36710;DHT22;22694;51.040;3.684;2023-01-16T11:35:29;14.10;92.40
36710;DHT22;22694;51.040;3.684;2023-01-16T11:37:56;14.30;91.90
36710;DHT22;22694;51.040;3.684;2023-01-16T11:40:24;14.10;91.20
36710;DHT22;22694;51.040;3.684;2023-01-16T11:45:47;14.10;91.80
36710;DHT22;22694;51.040;3.684;2023-01-16T11:48:33;14.20;91.50
36710;DHT22;22694;51.040;3.684;2023-01-16T11:50:59;14.10;91.30
36710;DHT22;22694;51.040;3.684;2023-01-16T11:53:33;14.00;91.30
36710;DHT22;22694;51.040;3.684;2023-01-16T11:58:48;14.00;91.50
36710;DHT22;22694;51.040;3.684;2023-01-16T12:04:06;13.90;91.50
36710;DHT22;22694;51.040;3.684;2023-01-16T12:12:09;13.90;91.50
36710;DHT22;22694;51.040;3.684;2023-01-16T12:14:58;13.80;91.50
36710;DHT22;22694;51.040;3.684;2023-01-16T12:30:36;13.80;91.50
36710;DHT22;22694;51.040;3.684;2023-01-16T12:33:58;13.80;91.50
36710;DHT22;22694;51.040;3.684;2023-01-16T12:36:42;13.90;91.70
36710;DHT22;22694;51.040;3.684;2023-01-16T12:59:38;13.20;89.60
36710;DHT22;22694;51.040;3.684;2023-01-16T13:05:14;12.90;90.10
36710;DHT22;22694;51.040;3.684;2023-01-16T13:10:52;12.80;90.20
36710;DHT22;22694;51.040;3.684;2023-01-16T13:13:49;12.70;90.30
36710;DHT22;22694;51.040;3.684;2023-01-16T13:16:27;12.70;90.40
36710;DHT22;22694;51.040;3.684;2023-01-16T13:19:12;12.70;90.50
36710;DHT22;22694;51.040;3.684;2023-01-16T13:22:25;12.60;90.50
36710;DHT22;22694;51.040;3.684;2023-01-16T13:24:54;12.60;90.60
36710;DHT22;22694;51.040;3.684;2023-01-16T13:27:40;12.60;90.60
36710;DHT22;22694;51.040;3.684;2023-01-16T13:30:16;12.50;90.60
36710;DHT22;22694;51.040;3.684;2023-01-16T13:43:39;12.50;91.30
36710;DHT22;22694;51.040;3.684;2023-01-16T13:46:25;12.90;95.20
36710;DHT22;22694;51.040;3.684;2023-01-16T13:48:53;13.50;94.20
36710;DHT22;22694;51.040;3.684;2023-01-16T13:51:21;13.90;93.00
36710;DHT22;22694;51.040;3.684;2023-01-16T13:54:00;14.30;92.10
36710;DHT22;22694;51.040;3.684;2023-01-16T13:56:30;14.30;91.40
36710;DHT22;22694;51.040;3.684;2023-01-16T14:01:33;13.90;90.20
36710;DHT22;22694;51.040;3.684;2023-01-16T14:06:45;13.50;88.60
36710;DHT22;22694;51.040;3.684;2023-01-16T14:12:20;13.20;89.40
36710;DHT22;22694;51.040;3.684;2023-01-16T14:14:48;13.10;89.70
36710;DHT22;22694;51.040;3.684;2023-01-16T14:26:02;12.70;90.30
36710;DHT22;22694;51.040;3.684;2023-01-16T14:28:29;12.70;90.40
36710;DHT22;22694;51.040;3.684;2023-01-16T14:30:54;12.60;90.30
36710;DHT22;22694;51.040;3.684;2023-01-16T14:33:21;12.60;90.40
36710;DHT22;22694;51.040;3.684;2023-01-16T14:35:51;12.60;90.40
36710;DHT22;22694;51.040;3.684;2023-01-16T14:38:20;12.50;90.40
36710;DHT22;22694;51.040;3.684;2023-01-16T14:40:59;12.50;90.50
36710;DHT22;22694;51.040;3.684;2023-01-16T14:47:26;12.50;90.50
36710;DHT22;22694;51.040;3.684;2023-01-16T14:50:14;12.40;90.50
36710;DHT22;22694;51.040;3.684;2023-01-16T14:58:39;12.60;96.40
36710;DHT22;22694;51.040;3.684;2023-01-16T15:01:17;12.80;95.30
36710;DHT22;22694;51.040;3.684;2023-01-16T15:04:05;13.00;94.60
36710;DHT22;22694;51.040;3.684;2023-01-16T15:06:38;13.10;93.90
36710;DHT22;22694;51.040;3.684;2023-01-16T15:09:07;13.10;93.50
36710;DHT22;22694;51.040;3.684;2023-01-16T15:11:43;13.10;93.20
36710;DHT22;22694;51.040;3.684;2023-01-16T15:14:18;13.20;93.00
36710;DHT22;22694;51.040;3.684;2023-01-16T15:19:57;13.00;92.10
36710;DHT22;22694;51.040;3.684;2023-01-16T15:22:44;12.90;91.10
36710;DHT22;22694;51.040;3.684;2023-01-16T15:28:11;12.70;91.10
36710;DHT22;22694;51.040;3.684;2023-01-16T15:30:39;12.70;91.30
36710;DHT22;22694;51.040;3.684;2023-01-16T15:33:21;12.90;93.00
36710;DHT22;22694;51.040;3.684;2023-01-16T15:36:46;13.10;93.60
36710;DHT22;22694;51.040;3.684;2023-01-16T15:45:28;13.20;92.20
36710;DHT22;22694;51.040;3.684;2023-01-16T15:48:42;13.20;92.00
36710;DHT22;22694;51.040;3.684;2023-01-16T15:51:19;13.10;91.80
36710;DHT22;22694;51.040;3.684;2023-01-16T15:53:48;13.10;91.80
36710;DHT22;22694;51.040;3.684;2023-01-16T15:56:20;13.10;91.70
36710;DHT22;22694;51.040;3.684;2023-01-16T15:58:47;13.10;91.70
36710;DHT22;22694;51.040;3.684;2023-01-16T16:01:14;13.10;91.70
36710;DHT22;22694;51.040;3.684;2023-01-16T16:03:46;13.10;91.70
36710;DHT22;22694;51.040;3.684;2023-01-16T16:06:13;13.10;91.70
36710;DHT22;22694;51.040;3.684;2023-01-16T16:08:45;13.10;91.70
36710;DHT22;22694;51.040;3.684;2023-01-16T16:11:30;13.10;91.70
36710;DHT22;22694;51.040;3.684;2023-01-16T16:17:13;13.10;91.60
36710;DHT22;22694;51.040;3.684;2023-01-16T16:25:58;12.90;90.90
36710;DHT22;22694;51.040;3.684;2023-01-16T16:30:55;12.90;91.50
36710;DHT22;22694;51.040;3.684;2023-01-16T16:33:22;13.00;91.60
36710;DHT22;22694;51.040;3.684;2023-01-16T16:35:54;13.00;91.60
36710;DHT22;22694;51.040;3.684;2023-01-16T16:46:33;12.90;91.60
36710;DHT22;22694;51.040;3.684;2023-01-16T16:51:33;12.90;91.60
36710;DHT22;22694;51.040;3.684;2023-01-16T16:54:15;12.90;91.80
36710;DHT22;22694;51.040;3.684;2023-01-16T16:56:46;12.90;91.50
36710;DHT22;22694;51.040;3.684;2023-01-16T16:59:27;12.90;91.50
36710;DHT22;22694;51.040;3.684;2023-01-16T17:01:56;12.90;91.50
36710;DHT22;22694;51.040;3.684;2023-01-16T17:04:23;12.90;91.60
36710;DHT22;22694;51.040;3.684;2023-01-16T17:06:48;13.10;93.00
36710;DHT22;22694;51.040;3.684;2023-01-16T17:09:17;13.20;92.70
36710;DHT22;22694;51.040;3.684;2023-01-16T17:11:44;13.30;92.50
36710;DHT22;22694;51.040;3.684;2023-01-16T17:14:10;13.40;92.40
36710;DHT22;22694;51.040;3.684;2023-01-16T17:16:36;13.50;92.20
36710;DHT22;22694;51.040;3.684;2023-01-16T17:19:26;13.50;92.10
36710;DHT22;22694;51.040;3.684;2023-01-16T17:21:54;13.60;92.00
36710;DHT22;22694;51.040;3.684;2023-01-16T17:24:20;13.70;92.00
36710;DHT22;22694;51.040;3.684;2023-01-16T17:26:46;13.70;91.90
36710;DHT22;22694;51.040;3.684;2023-01-16T17:29:12;13.70;91.80
36710;DHT22;22694;51.040;3.684;2023-01-16T17:31:41;13.70;91.70
36710;DHT22;22694;51.040;3.684;2023-01-16T17:34:15;13.70;91.50
36710;DHT22;22694;51.040;3.684;2023-01-16T17:36:41;13.90;93.20
36710;DHT22;22694;51.040;3.684;2023-01-16T17:39:07;14.20;92.40
36710;DHT22;22694;51.040;3.684;2023-01-16T17:41:35;14.20;91.30
36710;DHT22;22694;51.040;3.684;2023-01-16T17:44:07;14.10;91.10
36710;DHT22;22694;51.040;3.684;2023-01-16T17:46:52;14.00;90.60
36710;DHT22;22694;51.040;3.684;2023-01-16T17:49:18;13.70;87.90
36710;DHT22;22694;51.040;3.684;2023-01-16T17:51:43;13.50;87.40
36710;DHT22;22694;51.040;3.684;2023-01-16T17:54:09;13.30;87.60
36710;DHT22;22694;51.040;3.684;2023-01-16T17:56:55;13.20;88.00
36710;DHT22;22694;51.040;3.684;2023-01-16T17:59:22;13.00;88.40
36710;DHT22;22694;51.040;3.684;2023-01-16T18:01:52;12.90;88.70
36710;DHT22;22694;51.040;3.684;2023-01-16T18:04:19;12.80;88.80
36710;DHT22;22694;51.040;3.684;2023-01-16T18:06:45;12.70;89.00
36710;DHT22;22694;51.040;3.684;2023-01-16T18:09:12;12.60;89.30
36710;DHT22;22694;51.040;3.684;2023-01-16T18:11:41;12.50;89.40
36710;DHT22;22694;51.040;3.684;2023-01-16T18:14:25;12.50;89.60
36710;DHT22;22694;51.040;3.684;2023-01-16T18:17:11;12.40;89.70
36710;DHT22;22694;51.040;3.684;2023-01-16T18:19:54;12.30;89.80
36710;DHT22;22694;51.040;3.684;2023-01-16T18:22:30;12.30;90.00
36710;DHT22;22694;51.040;3.684;2023-01-16T18:24:57;12.20;90.00
36710;DHT22;22694;51.040;3.684;2023-01-16T18:27:23;12.20;90.10
36710;DHT22;22694;51.040;3.684;2023-01-16T18:29:49;12.20;90.10
36710;DHT22;22694;51.040;3.684;2023-01-16T18:32:15;12.10;90.10
36710;DHT22;22694;51.040;3.684;2023-01-16T18:34:57;12.10;90.20
36710;DHT22;22694;51.040;3.684;2023-01-16T18:37:44;12.00;90.20
36710;DHT22;22694;51.040;3.684;2023-01-16T18:40:30;12.00;90.20
36710;DHT22;22694;51.040;3.684;2023-01-16T18:43:15;12.00;90.50
36710;DHT22;22694;51.040;3.684;2023-01-16T18:46:00;12.00;90.20
36710;DHT22;22694;51.040;3.684;2023-01-16T18:48:44;11.90;90.20
36710;DHT22;22694;51.040;3.684;2023-01-16T18:51:28;11.90;90.30
36710;DHT22;22694;51.040;3.684;2023-01-16T18:54:15;11.90;90.30
36710;DHT22;22694;51.040;3.684;2023-01-16T18:57:00;11.80;90.30
36710;DHT22;22694;51.040;3.684;2023-01-16T18:59:45;11.80;90.40
36710;DHT22;22694;51.040;3.684;2023-01-16T19:05:04;11.80;90.40
36710;DHT22;22694;51.040;3.684;2023-01-16T19:07:30;11.70;90.40
36710;DHT22;22694;51.040;3.684;2023-01-16T19:10:01;11.70;90.40
36710;DHT22;22694;51.040;3.684;2023-01-16T19:12:29;11.70;90.50
36710;DHT22;22694;51.040;3.684;2023-01-16T19:14:59;11.70;90.50